Time;durP1;ratioP1;P1;durP2;ratioP2;P2;SDS_P1;SDS_P2;PMS_P1;PMS_P2;Temp;Humidity;BMP_temperature;BMP_pressure;BME280_temperature;BME280_humidity;BME280_pressure;Samples;Min_cycle;Max_cycle;Signal;HPM_P1;HPM_P2
2022/08/27 00:01:36;;;;;;;14.70;2.13;;;20.30;99.90;;;;;;5069204;28;20021;-76
2022/08/27 00:04:04;;;;;;;2.67;1.70;;;20.20;99.90;;;;;;5068041;28;20021;-77
2022/08/27 00:06:30;;;;;;;9.65;1.90;;;20.30;99.90;;;;;;5071702;28;20179;-75
2022/08/27 00:08:58;;;;;;;5.47;1.50;;;20.30;99.90;;;;;;5070840;28;20037;-75
2022/08/27 00:11:26;;;;;;;9.93;1.70;;;20.20;99.90;;;;;;5072750;28;20461;-75
2022/08/27 00:13:53;;;;;;;8.77;1.60;;;20.20;99.90;;;;;;5071049;28;20025;-76
2022/08/27 00:16:19;;;;;;;9.52;2.20;;;20.10;99.90;;;;;;5075216;28;20020;-78
2022/08/27 00:18:46;;;;;;;9.95;1.80;;;20.10;99.90;;;;;;5073852;28;20025;-78
2022/08/27 00:21:12;;;;;;;9.80;2.38;;;20.20;99.90;;;;;;5071782;28;20342;-77
2022/08/27 00:23:40;;;;;;;7.78;2.08;;;20.20;99.90;;;;;;5073341;28;20024;-76
2022/08/27 00:26:06;;;;;;;4.43;1.70;;;20.10;99.90;;;;;;5071098;28;20119;-75
2022/08/27 00:28:33;;;;;;;3.10;1.52;;;20.20;99.90;;;;;;5072918;28;20090;-76
2022/08/27 00:31:02;;;;;;;11.98;1.90;;;20.20;99.90;;;;;;5071851;28;20453;-78
2022/08/27 00:33:29;;;;;;;6.82;1.60;;;20.10;99.90;;;;;;5071177;28;20040;-76
2022/08/27 00:35:55;;;;;;;6.10;1.48;;;20.10;99.90;;;;;;5071054;28;20039;-76
2022/08/27 00:38:21;;;;;;;6.40;1.92;;;20.10;99.90;;;;;;5068146;28;20024;-75
2022/08/27 00:40:48;;;;;;;6.85;1.80;;;20.00;99.90;;;;;;5070163;28;20036;-76
2022/08/27 00:43:24;;;;;;;6.80;1.90;;;20.10;99.90;;;;;;5069349;28;20021;-76
2022/08/27 00:45:54;;;;;;;6.80;1.90;;;20.10;99.90;;;;;;5069303;28;20048;-76
2022/08/27 00:48:24;;;;;;;8.15;1.80;;;20.00;99.90;;;;;;5070295;28;20136;-75
2022/08/27 00:50:52;;;;;;;6.72;1.73;;;20.10;99.90;;;;;;5070106;28;20017;-76
2022/08/27 00:53:28;;;;;;;10.95;2.03;;;20.10;99.90;;;;;;5070280;28;20544;-76
2022/08/27 00:56:10;;;;;;;4.28;1.90;;;20.00;99.90;;;;;;5065061;28;20358;-75
2022/08/27 00:58:47;;;;;;;8.95;1.70;;;20.00;99.90;;;;;;5066862;28;20056;-75
2022/08/27 01:01:16;;;;;;;9.98;1.80;;;20.00;99.90;;;;;;5067031;28;20128;-76
2022/08/27 01:03:46;;;;;;;6.75;1.50;;;20.00;99.90;;;;;;5070449;28;20028;-76
2022/08/27 01:06:17;;;;;;;4.53;1.70;;;20.10;99.90;;;;;;5066190;28;20025;-75
2022/08/27 01:08:49;;;;;;;5.95;1.50;;;20.10;99.90;;;;;;5067161;28;20136;-75
2022/08/27 01:11:15;;;;;;;5.47;1.80;;;20.10;99.90;;;;;;5070832;28;20284;-73
2022/08/27 01:13:41;;;;;;;5.03;1.75;;;20.10;99.90;;;;;;5069165;28;20028;-76
2022/08/27 01:16:09;;;;;;;6.43;1.83;;;20.00;99.90;;;;;;5068435;28;20038;-76
2022/08/27 01:18:38;;;;;;;2.55;1.73;;;20.10;99.90;;;;;;5069220;28;20021;-72
2022/08/27 01:21:31;;;;;;;6.35;1.65;;;20.10;99.90;;;;;;5069423;28;20448;-74
2022/08/27 01:24:16;;;;;;;8.35;1.85;;;20.20;99.90;;;;;;5069911;28;20034;-75
2022/08/27 01:26:42;;;;;;;5.63;1.70;;;20.10;99.90;;;;;;5080471;28;20033;-75
2022/08/27 01:29:08;;;;;;;4.90;1.70;;;20.10;99.90;;;;;;5067427;28;20028;-75
2022/08/27 01:31:33;;;;;;;9.32;2.38;;;20.10;99.90;;;;;;5067494;28;20025;-74
2022/08/27 01:34:04;;;;;;;6.65;2.10;;;20.10;99.90;;;;;;5066700;28;20069;-75
2022/08/27 01:36:33;;;;;;;3.97;1.92;;;20.10;99.90;;;;;;5095823;28;20036;-75
2022/08/27 01:39:01;;;;;;;6.85;1.67;;;20.10;99.90;;;;;;5068981;28;20017;-76
2022/08/27 01:41:29;;;;;;;8.00;2.03;;;20.00;99.90;;;;;;5071424;28;20949;-76
2022/08/27 01:43:55;;;;;;;4.38;1.60;;;20.00;99.90;;;;;;5069584;28;20039;-75
2022/08/27 01:46:23;;;;;;;4.32;1.80;;;20.10;99.90;;;;;;5068976;28;20025;-76
2022/08/27 01:48:48;;;;;;;6.25;1.70;;;20.10;99.90;;;;;;5070414;28;20039;-76
2022/08/27 01:51:14;;;;;;;7.90;2.03;;;20.10;99.90;;;;;;5068464;28;20029;-75
2022/08/27 01:53:40;;;;;;;9.50;2.22;;;20.00;99.90;;;;;;5071537;28;20028;-74
2022/08/27 01:56:06;;;;;;;7.28;2.05;;;20.00;99.90;;;;;;5069528;28;20389;-76
2022/08/27 01:58:32;;;;;;;3.97;1.70;;;20.00;99.90;;;;;;5063359;28;20020;-75
2022/08/27 02:01:04;;;;;;;4.85;1.65;;;20.00;99.90;;;;;;5070059;28;20099;-76
2022/08/27 02:03:30;;;;;;;8.55;1.88;;;20.00;99.90;;;;;;5062843;28;20062;-75
2022/08/27 02:05:56;;;;;;;5.57;2.00;;;20.00;99.90;;;;;;5068995;28;20484;-76
2022/08/27 02:08:24;;;;;;;8.20;2.03;;;19.90;99.90;;;;;;5069575;28;20035;-76
2022/08/27 02:10:50;;;;;;;10.65;2.40;;;20.00;99.90;;;;;;5070169;28;20429;-76
2022/08/27 02:13:16;;;;;;;5.82;2.08;;;20.00;99.90;;;;;;5097305;27;20040;-75
2022/08/27 02:15:43;;;;;;;6.68;2.17;;;20.00;99.90;;;;;;5067970;28;20030;-75
2022/08/27 02:18:10;;;;;;;5.47;2.42;;;19.90;99.90;;;;;;5068409;28;20441;-74
2022/08/27 02:20:42;;;;;;;7.72;2.55;;;19.90;99.90;;;;;;5066298;28;20339;-75
2022/08/27 02:23:11;;;;;;;7.30;2.55;;;19.90;99.90;;;;;;5067990;28;20021;-76
2022/08/27 02:25:40;;;;;;;9.27;2.38;;;19.90;99.90;;;;;;5068549;28;20089;-76
2022/08/27 02:28:06;;;;;;;4.72;1.90;;;19.90;99.90;;;;;;5068888;28;20129;-75
2022/08/27 02:30:33;;;;;;;4.85;2.28;;;19.90;99.90;;;;;;5066518;28;20024;-75
2022/08/27 02:33:04;;;;;;;6.00;1.95;;;20.00;99.90;;;;;;5066881;28;20067;-74
2022/08/27 02:35:32;;;;;;;5.80;1.75;;;20.00;99.90;;;;;;5066230;28;20737;-76
2022/08/27 02:37:58;;;;;;;6.28;2.20;;;19.90;99.90;;;;;;5070503;28;20354;-76
2022/08/27 02:40:25;;;;;;;6.53;1.98;;;19.80;99.90;;;;;;5069786;28;20020;-75
2022/08/27 02:42:51;;;;;;;7.32;1.75;;;19.80;99.90;;;;;;5068359;28;20024;-75
2022/08/27 02:45:22;;;;;;;6.03;2.08;;;19.80;99.90;;;;;;5064916;28;20458;-76
2022/08/27 02:47:50;;;;;;;4.88;2.17;;;19.70;99.90;;;;;;5065732;28;20136;-74
2022/08/27 02:50:18;;;;;;;11.10;2.22;;;19.80;99.90;;;;;;5064454;28;20029;-75
2022/08/27 02:52:44;;;;;;;4.75;1.95;;;19.70;99.90;;;;;;5069844;28;20457;-75
2022/08/27 02:55:11;;;;;;;5.32;2.28;;;19.80;99.90;;;;;;5066505;28;20029;-75
2022/08/27 02:57:37;;;;;;;4.40;1.80;;;19.80;99.90;;;;;;5067888;28;20028;-75
2022/08/27 03:00:12;;;;;;;4.85;1.77;;;19.80;99.90;;;;;;5066047;28;20020;-76
2022/08/27 03:02:37;;;;;;;6.13;1.90;;;19.80;99.90;;;;;;5067481;28;20040;-75
2022/08/27 03:05:04;;;;;;;6.00;2.05;;;19.80;99.90;;;;;;5069193;28;20029;-76
2022/08/27 03:07:30;;;;;;;7.78;1.98;;;19.80;99.90;;;;;;5067254;28;20120;-75
2022/08/27 03:09:55;;;;;;;10.00;2.00;;;19.80;99.90;;;;;;5067430;28;20033;-74
2022/08/27 03:12:23;;;;;;;4.80;1.70;;;19.70;99.90;;;;;;5067598;28;20052;-76
2022/08/27 03:14:49;;;;;;;5.95;1.77;;;19.70;99.90;;;;;;5066956;28;20039;-75
2022/08/27 03:20:03;;;;;;;5.05;2.10;;;19.70;99.90;;;;;;5070350;28;20046;-75
2022/08/27 03:22:28;;;;;;;4.78;1.70;;;19.70;99.90;;;;;;5072061;28;20082;-75
2022/08/27 03:24:55;;;;;;;1.92;1.70;;;19.70;99.90;;;;;;5073306;28;20025;-74
2022/08/27 03:27:23;;;;;;;4.63;1.75;;;19.70;99.90;;;;;;5068587;28;20438;-73
2022/08/27 03:29:48;;;;;;;7.72;1.75;;;19.60;99.90;;;;;;5069516;28;20025;-76
2022/08/27 03:32:14;;;;;;;7.75;2.47;;;19.60;99.90;;;;;;5074311;28;20035;-73
2022/08/27 03:34:42;;;;;;;4.22;1.60;;;19.60;99.90;;;;;;5071309;28;20144;-75
2022/08/27 03:37:07;;;;;;;3.58;2.03;;;19.60;99.90;;;;;;5068977;28;20448;-75
2022/08/27 03:39:38;;;;;;;6.57;1.88;;;19.60;99.90;;;;;;5071306;28;20016;-76
2022/08/27 03:42:04;;;;;;;4.60;1.80;;;19.60;99.90;;;;;;5072281;28;20452;-75
2022/08/27 03:44:32;;;;;;;8.02;2.17;;;19.50;99.90;;;;;;5073560;28;20028;-75
2022/08/27 03:46:58;;;;;;;7.13;2.00;;;19.50;99.90;;;;;;5069061;28;20091;-75
2022/08/27 03:49:27;;;;;;;3.90;2.00;;;19.60;99.90;;;;;;5068819;28;20017;-76
2022/08/27 03:51:53;;;;;;;10.45;2.05;;;19.60;99.90;;;;;;5069466;28;20025;-75
2022/08/27 03:54:21;;;;;;;5.07;1.80;;;19.70;99.90;;;;;;5073499;28;20456;-74
2022/08/27 03:56:48;;;;;;;4.72;2.05;;;19.60;99.90;;;;;;5071435;28;20036;-75
2022/08/27 03:59:16;;;;;;;5.82;2.00;;;19.70;99.90;;;;;;5072096;28;20020;-75
2022/08/27 04:01:43;;;;;;;5.35;2.05;;;19.60;99.90;;;;;;5069721;28;20028;-75
2022/08/27 04:04:11;;;;;;;4.10;2.00;;;19.60;99.90;;;;;;5070310;28;20044;-74
2022/08/27 04:06:37;;;;;;;6.28;1.92;;;19.60;99.90;;;;;;5072579;28;20047;-75
2022/08/27 04:09:03;;;;;;;2.45;1.42;;;19.60;99.90;;;;;;5070885;28;20438;-73
2022/08/27 04:11:34;;;;;;;7.00;2.25;;;19.50;99.90;;;;;;5070452;28;20042;-75
2022/08/27 04:14:04;;;;;;;2.75;1.50;;;19.50;99.90;;;;;;5067675;28;20032;-74
2022/08/27 04:16:31;;;;;;;6.00;1.80;;;19.50;99.90;;;;;;5073202;28;20066;-74
2022/08/27 04:18:58;;;;;;;10.32;2.30;;;19.50;99.90;;;;;;5070359;28;20027;-74
2022/08/27 04:21:25;;;;;;;3.00;1.85;;;19.50;99.90;;;;;;5071991;28;20354;-75
2022/08/27 04:23:50;;;;;;;5.63;2.05;;;19.50;99.90;;;;;;5076947;28;20095;-74
2022/08/27 04:26:16;;;;;;;7.57;2.00;;;19.50;99.90;;;;;;5076579;28;20526;-75
2022/08/27 04:28:42;;;;;;;10.32;2.00;;;19.60;99.90;;;;;;5072502;28;20032;-75
2022/08/27 04:31:08;;;;;;;6.15;2.10;;;19.60;99.90;;;;;;5072257;28;20430;-75
2022/08/27 04:33:34;;;;;;;6.18;1.90;;;19.50;99.90;;;;;;5069336;28;20040;-75
2022/08/27 04:36:10;;;;;;;5.93;2.10;;;19.40;99.90;;;;;;5070947;28;20406;-74
2022/08/27 04:38:37;;;;;;;6.10;1.80;;;19.40;99.90;;;;;;5071598;28;20111;-75
2022/08/27 04:41:25;;;;;;;4.90;2.08;;;19.30;99.90;;;;;;5066454;28;20022;-75
2022/08/27 04:43:55;;;;;;;10.13;2.20;;;19.40;99.90;;;;;;5072663;28;20021;-74
2022/08/27 04:46:33;;;;;;;6.68;2.08;;;19.40;99.90;;;;;;5069802;28;20038;-75
2022/08/27 04:49:01;;;;;;;5.78;2.25;;;19.40;99.90;;;;;;5103694;28;20114;-77
2022/08/27 04:51:28;;;;;;;5.90;2.20;;;19.30;99.90;;;;;;5069300;28;20093;-74
2022/08/27 04:53:56;;;;;;;11.30;2.15;;;19.30;99.90;;;;;;5069129;28;20437;-76
2022/08/27 04:56:24;;;;;;;4.07;2.80;;;19.40;99.90;;;;;;5066693;28;20441;-75
2022/08/27 04:58:50;;;;;;;5.97;2.20;;;19.30;99.90;;;;;;5072925;28;20027;-75
2022/08/27 05:01:28;;;;;;;6.57;2.03;;;19.30;99.90;;;;;;5102401;28;20056;-74
2022/08/27 05:03:55;;;;;;;7.82;2.00;;;19.30;99.90;;;;;;5067689;28;20489;-75
2022/08/27 05:06:22;;;;;;;6.55;2.08;;;19.30;99.90;;;;;;5071423;28;20043;-74
2022/08/27 05:08:48;;;;;;;6.70;1.95;;;19.40;99.90;;;;;;5068608;28;20039;-74
2022/08/27 05:11:16;;;;;;;3.75;1.95;;;19.40;99.90;;;;;;5070277;28;20021;-74
2022/08/27 05:13:46;;;;;;;5.55;1.73;;;19.40;99.90;;;;;;5068212;28;20115;-75
2022/08/27 05:16:17;;;;;;;6.05;2.03;;;19.40;99.90;;;;;;5083394;28;20037;-74
2022/08/27 05:18:47;;;;;;;6.70;2.13;;;19.30;99.90;;;;;;5070456;28;20048;-76
2022/08/27 05:21:25;;;;;;;5.82;2.10;;;19.30;99.90;;;;;;5070259;28;20475;-76
2022/08/27 05:23:53;;;;;;;7.00;2.20;;;19.30;99.90;;;;;;5070113;28;20028;-75
2022/08/27 05:26:21;;;;;;;14.15;2.47;;;19.30;99.90;;;;;;5068694;28;20361;-75
2022/08/27 05:28:52;;;;;;;6.97;2.60;;;19.30;99.90;;;;;;5070230;28;20481;-74
2022/08/27 05:31:21;;;;;;;5.10;2.50;;;19.30;99.90;;;;;;5069741;28;20025;-75
2022/08/27 05:33:50;;;;;;;4.70;2.53;;;19.30;99.90;;;;;;5065417;28;20032;-74
2022/08/27 05:36:22;;;;;;;7.07;2.40;;;19.20;99.90;;;;;;5064777;28;20039;-75
2022/08/27 05:38:51;;;;;;;6.43;2.10;;;19.30;99.90;;;;;;5068895;28;20078;-76
2022/08/27 05:41:19;;;;;;;6.85;2.45;;;19.30;99.90;;;;;;5066504;28;20025;-75
2022/08/27 05:43:46;;;;;;;6.35;2.33;;;19.30;99.90;;;;;;5067118;28;20024;-75
2022/08/27 05:46:14;;;;;;;7.70;1.90;;;19.30;99.90;;;;;;5071328;28;20028;-75
2022/08/27 05:48:40;;;;;;;18.17;3.28;;;19.30;99.90;;;;;;5068441;28;20043;-77
2022/08/27 05:51:18;;;;;;;4.20;1.98;;;19.30;99.90;;;;;;5073627;28;20039;-73
2022/08/27 05:53:48;;;;;;;4.18;2.20;;;19.40;99.90;;;;;;5071430;28;20036;-74
2022/08/27 05:56:20;;;;;;;5.10;2.00;;;19.40;99.90;;;;;;5069033;28;20032;-76
2022/08/27 06:01:37;;;;;;;11.90;2.58;;;19.40;99.90;;;;;;5070027;28;20036;-75
2022/08/27 06:04:04;;;;;;;8.88;2.50;;;19.40;99.90;;;;;;5071162;28;20036;-76
2022/08/27 06:06:34;;;;;;;10.63;2.28;;;19.40;99.90;;;;;;5069545;28;20025;-77
2022/08/27 06:09:01;;;;;;;7.75;2.45;;;19.60;99.90;;;;;;5070631;28;20024;-74
2022/08/27 06:11:27;;;;;;;6.72;2.55;;;19.60;99.90;;;;;;5066029;28;20024;-74
2022/08/27 06:13:55;;;;;;;6.63;2.38;;;19.60;99.90;;;;;;5063547;28;20107;-75
2022/08/27 06:16:20;;;;;;;4.88;2.30;;;19.70;99.90;;;;;;5069051;28;20066;-75
2022/08/27 06:18:47;;;;;;;3.75;2.05;;;19.60;99.90;;;;;;5066420;28;20071;-74
2022/08/27 06:21:15;;;;;;;8.23;2.65;;;19.60;99.90;;;;;;5068031;28;20150;-75
2022/08/27 06:23:43;;;;;;;6.30;2.33;;;19.60;99.90;;;;;;5066637;28;20508;-75
2022/08/27 06:26:13;;;;;;;5.35;2.47;;;19.50;99.90;;;;;;5067534;28;20021;-73
2022/08/27 06:28:43;;;;;;;7.95;2.67;;;19.50;99.90;;;;;;5066341;28;20093;-75
2022/08/27 06:31:26;;;;;;;11.05;3.22;;;19.50;99.90;;;;;;5066843;28;20068;-75
2022/08/27 06:33:57;;;;;;;4.90;2.80;;;19.50;99.90;;;;;;5066077;28;20020;-75
2022/08/27 06:36:28;;;;;;;8.85;2.47;;;19.50;99.90;;;;;;5065864;28;20044;-75
2022/08/27 06:38:55;;;;;;;8.52;2.33;;;19.60;99.90;;;;;;5062049;28;20055;-75
2022/08/27 06:41:25;;;;;;;5.45;2.58;;;19.60;99.90;;;;;;5064606;28;20021;-77
2022/08/27 06:43:51;;;;;;;7.82;2.83;;;19.60;99.90;;;;;;5065693;28;20029;-76
2022/08/27 06:46:20;;;;;;;4.35;3.00;;;19.60;99.90;;;;;;5064518;28;20028;-75
2022/08/27 06:48:49;;;;;;;7.65;3.17;;;19.50;99.90;;;;;;5082868;28;20098;-73
2022/08/27 06:51:27;;;;;;;10.98;3.30;;;19.60;99.90;;;;;;5065747;28;20090;-75
2022/08/27 06:53:54;;;;;;;5.85;3.80;;;19.60;99.90;;;;;;5066305;28;20449;-75
2022/08/27 06:56:20;;;;;;;8.50;3.03;;;19.60;99.90;;;;;;5066362;28;20024;-74
2022/08/27 06:58:47;;;;;;;6.80;2.75;;;19.80;99.90;;;;;;5064064;28;20034;-74
2022/08/27 07:01:14;;;;;;;8.30;2.90;;;19.90;99.90;;;;;;5066813;28;20021;-80
2022/08/27 07:03:44;;;;;;;4.72;3.75;;;20.00;99.90;;;;;;5065516;28;20390;-76
2022/08/27 07:06:13;;;;;;;6.95;3.17;;;20.00;99.90;;;;;;5063655;28;20028;-77
2022/08/27 07:08:40;;;;;;;14.52;3.92;;;20.00;99.90;;;;;;5065097;28;20008;-76
2022/08/27 07:11:10;;;;;;;9.20;3.88;;;20.00;99.90;;;;;;5065546;28;20021;-76
2022/08/27 07:13:37;;;;;;;14.43;4.32;;;19.90;99.90;;;;;;5068833;28;20024;-77
2022/08/27 07:16:07;;;;;;;13.55;3.33;;;20.00;99.90;;;;;;5065302;28;20595;-76
2022/08/27 07:18:33;;;;;;;7.20;2.90;;;20.00;99.90;;;;;;5065553;28;20104;-79
2022/08/27 07:20:59;;;;;;;12.38;4.00;;;20.20;99.90;;;;;;5068618;28;20532;-78
2022/08/27 07:23:25;;;;;;;5.72;3.00;;;20.30;99.90;;;;;;5064570;28;20020;-78
2022/08/27 07:25:51;;;;;;;10.23;3.65;;;20.30;99.90;;;;;;5063647;28;20024;-77
2022/08/27 07:28:17;;;;;;;13.30;3.58;;;20.40;99.90;;;;;;5069051;28;20043;-77
2022/08/27 07:30:43;;;;;;;7.70;3.03;;;20.50;99.90;;;;;;5067721;28;20107;-77
2022/08/27 07:33:09;;;;;;;7.75;2.92;;;20.70;99.90;;;;;;5066168;28;20131;-77
2022/08/27 07:35:37;;;;;;;6.97;3.30;;;20.70;99.90;;;;;;5069023;28;20016;-75
2022/08/27 07:38:05;;;;;;;14.48;4.53;;;20.80;99.90;;;;;;5066162;28;20032;-76
2022/08/27 07:40:31;;;;;;;7.85;2.67;;;20.90;99.90;;;;;;5062044;28;20017;-75
2022/08/27 07:45:54;;;;;;;10.52;3.08;;;21.20;99.90;;;;;;5075420;28;20101;-75
2022/08/27 07:48:24;;;;;;;13.00;3.17;;;21.30;99.90;;;;;;5067699;28;20027;-79
2022/08/27 07:50:51;;;;;;;9.55;2.63;;;21.40;99.90;;;;;;5067486;28;20028;-75
2022/08/27 07:53:18;;;;;;;6.13;2.80;;;21.50;99.90;;;;;;5068839;28;20397;-75
2022/08/27 07:55:44;;;;;;;5.80;2.60;;;21.50;99.90;;;;;;5065878;28;20052;-76
2022/08/27 07:58:10;;;;;;;8.07;2.45;;;21.50;99.90;;;;;;5068398;28;20021;-78
2022/08/27 08:00:36;;;;;;;51.05;7.55;;;21.60;99.90;;;;;;5068775;28;20028;-88
2022/08/27 08:03:04;;;;;;;4.68;2.28;;;21.80;99.90;;;;;;5081321;28;20032;-78
2022/08/27 08:05:30;;;;;;;6.93;3.40;;;22.30;99.90;;;;;;5070378;28;20024;-71
2022/08/27 08:07:58;;;;;;;9.95;2.55;;;22.70;99.90;;;;;;5078815;28;20028;-71
2022/08/27 08:10:28;;;;;;;5.30;2.40;;;22.80;99.90;;;;;;5071189;28;20033;-71
2022/08/27 08:12:56;;;;;;;12.45;2.67;;;23.00;99.90;;;;;;5070188;28;20153;-71
2022/08/27 08:15:22;;;;;;;5.28;2.38;;;23.30;99.90;;;;;;5069265;28;20043;-71
2022/08/27 08:17:47;;;;;;;10.52;2.53;;;23.30;99.90;;;;;;5072149;28;20036;-78
2022/08/27 08:20:14;;;;;;;6.28;2.55;;;23.50;99.90;;;;;;5071165;28;20021;-77
2022/08/27 08:22:40;;;;;;;8.48;2.38;;;23.60;99.50;;;;;;5072887;28;20082;-79
2022/08/27 08:25:07;;;;;;;7.50;2.30;;;23.70;99.00;;;;;;5087917;28;20532;-78
2022/08/27 08:27:34;;;;;;;9.45;2.28;;;23.80;98.90;;;;;;5070159;28;20102;-77
2022/08/27 08:30:01;;;;;;;7.68;2.15;;;23.90;98.20;;;;;;5069742;28;20032;-73
2022/08/27 08:32:26;;;;;;;7.35;2.38;;;23.90;97.70;;;;;;5069925;28;20024;-78
2022/08/27 08:34:52;;;;;;;2.88;1.92;;;24.10;97.90;;;;;;5071514;28;20024;-75
2022/08/27 08:37:18;;;;;;;6.78;2.10;;;24.00;97.30;;;;;;5067681;28;20085;-78
2022/08/27 08:39:44;;;;;;;4.18;2.08;;;23.80;97.50;;;;;;5071422;28;20646;-79
2022/08/27 08:42:34;;;;;;;11.52;2.28;;;23.80;97.60;;;;;;5074066;28;20514;-78
2022/08/27 08:45:05;;;;;;;7.85;2.25;;;23.90;98.00;;;;;;5071921;28;20065;-78
2022/08/27 08:47:51;;;;;;;7.53;2.72;;;23.90;97.60;;;;;;5067168;28;20028;-79
2022/08/27 08:50:27;;;;;;;7.53;2.72;;;23.90;97.30;;;;;;5088534;27;20147;-78
2022/08/27 08:52:59;;;;;;;5.65;2.70;;;24.20;97.80;;;;;;5070352;28;20310;-79
2022/08/27 08:55:28;;;;;;;6.63;2.27;;;24.30;96.00;;;;;;5064696;28;20032;-78
2022/08/27 08:58:08;;;;;;;7.28;2.45;;;24.30;96.30;;;;;;5067782;28;20032;-78
2022/08/27 09:00:35;;;;;;;7.70;2.28;;;24.70;95.90;;;;;;5069223;28;20021;-78
2022/08/27 09:03:01;;;;;;;3.65;2.17;;;25.50;94.30;;;;;;5066792;28;20032;-78
2022/08/27 09:05:27;;;;;;;5.80;2.13;;;26.00;92.80;;;;;;5071352;28;20025;-76
2022/08/27 09:08:25;;;;;;;9.65;2.75;;;26.40;91.90;;;;;;5069910;28;20063;-77
2022/08/27 09:11:17;;;;;;;11.48;2.72;;;26.70;90.10;;;;;;5071680;28;20036;-78
2022/08/27 09:13:49;;;;;;;7.15;1.85;;;26.70;89.60;;;;;;5070110;28;20035;-77
2022/08/27 09:16:15;;;;;;;6.00;2.00;;;26.70;88.20;;;;;;5069654;28;20036;-78
2022/08/27 09:18:43;;;;;;;5.07;2.35;;;26.90;87.20;;;;;;5071401;28;20038;-78
2022/08/27 09:21:28;;;;;;;5.88;2.30;;;27.30;84.30;;;;;;5070767;28;20029;-77
2022/08/27 09:24:18;;;;;;;4.30;1.98;;;27.50;82.20;;;;;;5068385;28;20461;-79
2022/08/27 09:26:44;;;;;;;4.25;2.45;;;27.50;80.80;;;;;;5069356;28;20372;-79
2022/08/27 09:29:15;;;;;;;4.72;2.05;;;27.80;81.20;;;;;;5068426;28;20024;-76
2022/08/27 09:31:46;;;;;;;4.03;2.63;;;28.00;80.60;;;;;;5066744;28;20035;-77
2022/08/27 09:34:17;;;;;;;7.65;3.50;;;28.60;77.10;;;;;;5070386;28;20036;-77
2022/08/27 09:37:00;;;;;;;7.68;2.17;;;28.90;76.40;;;;;;5067280;28;20032;-77
2022/08/27 09:39:45;;;;;;;5.97;2.20;;;29.30;73.10;;;;;;5053782;28;20481;-77
2022/08/27 09:42:21;;;;;;;11.68;5.32;;;30.00;70.20;;;;;;5066421;28;20086;-77
2022/08/27 09:44:47;;;;;;;4.82;2.40;;;30.70;67.20;;;;;;5067597;28;20043;-73
2022/08/27 09:47:14;;;;;;;5.57;2.10;;;30.90;63.70;;;;;;5068408;28;20020;-77
2022/08/27 09:49:40;;;;;;;4.43;2.60;;;30.80;63.10;;;;;;5068966;28;20568;-77
2022/08/27 09:52:09;;;;;;;6.50;2.35;;;30.60;64.10;;;;;;5069584;28;20040;-77
2022/08/27 09:54:45;;;;;;;2.17;1.35;;;29.90;63.40;;;;;;5068658;28;20350;-77
2022/08/27 09:57:14;;;;;;;3.72;1.75;;;28.70;65.70;;;;;;5070321;28;20044;-80
2022/08/27 09:59:50;;;;;;;3.63;1.90;;;28.20;67.60;;;;;;5069450;28;20036;-78
2022/08/27 10:02:17;;;;;;;6.43;1.98;;;27.90;69.10;;;;;;5075342;28;20028;-78
2022/08/27 10:04:48;;;;;;;8.50;1.73;;;27.40;70.90;;;;;;5070278;28;20029;-75
2022/08/27 10:07:16;;;;;;;5.15;2.10;;;27.40;71.40;;;;;;5069763;28;20024;-78
2022/08/27 10:09:50;;;;;;;5.45;2.30;;;27.20;72.40;;;;;;5065876;28;20033;-77
2022/08/27 10:12:34;;;;;;;2.25;2.08;;;26.90;73.70;;;;;;5070731;28;20051;-79
2022/08/27 10:15:05;;;;;;;6.90;1.70;;;26.50;74.50;;;;;;5068234;28;20042;-77
2022/08/27 10:17:46;;;;;;;5.28;1.75;;;26.10;76.30;;;;;;5066880;28;20051;-80
2022/08/27 10:20:29;;;;;;;5.38;1.98;;;26.20;77.40;;;;;;5062846;28;20040;-75
2022/08/27 10:23:13;;;;;;;6.55;2.00;;;26.30;76.20;;;;;;5068587;28;20029;-79
2022/08/27 10:25:42;;;;;;;6.25;1.90;;;26.40;77.00;;;;;;5083384;28;20028;-78
2022/08/27 10:28:47;;;;;;;7.03;1.73;;;26.50;76.20;;;;;;5068844;28;20104;-77
2022/08/27 10:32:02;;;;;;;4.13;2.05;;;26.40;76.20;;;;;;5066867;28;20114;-78
2022/08/27 10:34:36;;;;;;;4.00;1.60;;;26.30;77.00;;;;;;5062446;28;20460;-78
2022/08/27 10:37:11;;;;;;;4.70;1.83;;;25.90;76.80;;;;;;5072752;28;20048;-76
2022/08/27 10:39:59;;;;;;;6.00;2.10;;;25.90;78.00;;;;;;5070737;28;20122;-80
2022/08/27 10:42:36;;;;;;;4.82;2.35;;;26.00;78.10;;;;;;5076381;28;20129;-79
2022/08/27 10:45:41;;;;;;;7.80;2.17;;;26.20;77.70;;;;;;5066360;28;20143;-80
2022/08/27 10:48:25;;;;;;;5.55;2.20;;;26.20;77.50;;;;;;5062369;28;20070;-77
2022/08/27 10:51:05;;;;;;;5.10;1.70;;;26.10;77.40;;;;;;5065072;28;20477;-79
2022/08/27 10:53:46;;;;;;;4.55;1.85;;;26.20;77.80;;;;;;5065631;28;20037;-79
2022/08/27 10:56:45;;;;;;;3.00;1.92;;;25.90;78.30;;;;;;5065758;28;20030;-76
2022/08/27 10:59:16;;;;;;;8.43;2.05;;;25.80;78.40;;;;;;5068093;28;20048;-78
2022/08/27 11:01:57;;;;;;;101.85;49.53;;;25.70;78.70;;;;;;5077404;28;20056;-77
2022/08/27 11:04:47;;;;;;;5.10;2.13;;;25.50;80.20;;;;;;5065456;28;20031;-77
2022/08/27 11:07:42;;;;;;;6.13;2.00;;;25.60;80.40;;;;;;5067850;28;20028;-78
2022/08/27 11:10:23;;;;;;;3.53;1.85;;;25.80;79.50;;;;;;5071640;28;20055;-77
2022/08/27 11:12:53;;;;;;;1.95;1.60;;;25.90;78.60;;;;;;5067091;28;20044;-79
2022/08/27 11:15:30;;;;;;;5.63;1.88;;;25.90;78.30;;;;;;5069695;28;20043;-76
2022/08/27 11:18:05;;;;;;;6.65;2.22;;;25.80;78.80;;;;;;5065769;28;20036;-76
2022/08/27 11:20:49;;;;;;;6.38;2.00;;;25.90;79.00;;;;;;5073766;28;20614;-78
2022/08/27 11:23:24;;;;;;;5.75;1.95;;;26.10;77.60;;;;;;5075379;28;20142;-79
2022/08/27 11:25:55;;;;;;;5.22;1.85;;;26.10;77.90;;;;;;5076726;28;20352;-79
2022/08/27 11:28:28;;;;;;;4.90;2.20;;;26.20;77.40;;;;;;5071507;28;20017;-76
2022/08/27 11:31:08;;;;;;;6.15;2.00;;;26.20;76.70;;;;;;5071389;28;20020;-77
2022/08/27 11:33:56;;;;;;;6.57;2.13;;;26.30;77.40;;;;;;5073062;28;20048;-81
2022/08/27 11:36:33;;;;;;;3.70;1.80;;;26.50;75.80;;;;;;5083527;28;20119;-80
2022/08/27 11:39:11;;;;;;;5.18;2.25;;;26.60;75.00;;;;;;5083927;28;20032;-77
2022/08/27 11:41:46;;;;;;;6.18;1.80;;;26.70;73.60;;;;;;5089504;28;20016;-76
2022/08/27 11:44:18;;;;;;;5.22;1.83;;;26.80;73.20;;;;;;5091165;28;20577;-79
2022/08/27 11:46:50;;;;;;;2.53;1.70;;;26.80;73.70;;;;;;5083351;28;20028;-77
2022/08/27 11:49:28;;;;;;;;;;;26.70;72.90;;;;;;5085712;28;20025;-77
2022/08/27 11:52:01;;;;;;;5.10;1.65;;;26.60;72.50;;;;;;5106756;28;19908;-79
2022/08/27 11:54:41;;;;;;;3.30;1.42;;;26.60;72.50;;;;;;5070168;28;20040;-79
2022/08/27 11:57:25;;;;;;;2.75;1.40;;;26.60;72.10;;;;;;5088076;28;20041;-78
2022/08/27 11:59:52;;;;;;;5.95;1.60;;;26.80;73.20;;;;;;5066587;28;20027;-81
2022/08/27 12:02:26;;;;;;;3.40;1.60;;;27.10;71.20;;;;;;5104346;28;20551;-76
2022/08/27 12:04:54;;;;;;;5.88;1.90;;;27.30;69.80;;;;;;5068410;28;20024;-83
2022/08/27 12:07:26;;;;;;;3.47;1.80;;;27.30;69.30;;;;;;5068819;28;20032;-83
2022/08/27 12:10:06;;;;;;;9.50;1.70;;;27.40;69.40;;;;;;5067644;28;20037;-81
2022/08/27 12:12:47;;;;;;;4.38;1.55;;;27.70;68.20;;;;;;5064016;28;20528;-80
2022/08/27 12:15:53;;;;;;;2.10;1.60;;;28.00;68.00;;;;;;5069410;28;20421;-78
2022/08/27 12:18:47;;;;;;;2.95;1.80;;;28.20;66.60;;;;;;5046147;28;20033;-79
2022/08/27 12:21:15;;;;;;;5.60;2.15;;;28.20;66.80;;;;;;5071948;28;20032;-80
2022/08/27 12:24:00;;;;;;;3.47;1.60;;;27.90;65.90;;;;;;5070787;28;20085;-79
2022/08/27 12:26:30;;;;;;;5.85;2.10;;;27.70;66.90;;;;;;5072031;28;20108;-81
2022/08/27 12:29:28;;;;;;;8.93;2.05;;;27.40;67.60;;;;;;5070970;28;20025;-80
2022/08/27 12:32:20;;;;;;;5.45;1.75;;;27.10;66.90;;;;;;5070980;28;20029;-78
2022/08/27 12:35:14;;;;;;;3.72;2.13;;;26.70;67.40;;;;;;5070681;28;20028;-78
2022/08/27 12:37:54;;;;;;;4.38;1.98;;;26.60;68.50;;;;;;5070043;28;20108;-78
2022/08/27 12:40:27;;;;;;;3.72;1.67;;;26.60;68.80;;;;;;5069700;28;20027;-77
2022/08/27 12:43:04;;;;;;;5.45;1.60;;;26.70;68.40;;;;;;5071200;28;20112;-79
2022/08/27 12:45:40;;;;;;;6.35;2.05;;;26.70;68.70;;;;;;5070836;28;20322;-81
2022/08/27 12:48:08;;;;;;;3.75;1.95;;;26.60;69.10;;;;;;5070414;28;20094;-78
2022/08/27 12:50:34;;;;;;;5.82;1.70;;;26.60;68.80;;;;;;5069128;28;20031;-79
2022/08/27 12:53:34;;;;;;;5.90;1.90;;;26.60;69.20;;;;;;5069944;28;20036;-78
2022/08/27 12:56:08;;;;;;;6.30;2.00;;;26.80;68.10;;;;;;5072558;28;20032;-80
2022/08/27 12:58:58;;;;;;;4.00;1.85;;;27.00;67.70;;;;;;5072846;28;20024;-80
2022/08/27 13:01:45;;;;;;;3.13;2.20;;;27.30;67.50;;;;;;5071945;28;20035;-79
2022/08/27 13:04:26;;;;;;;2.40;2.15;;;27.40;66.40;;;;;;5071830;28;20051;-81
2022/08/27 13:06:52;;;;;;;3.25;2.03;;;27.60;66.50;;;;;;5069735;28;20033;-78
2022/08/27 13:09:43;;;;;;;4.75;1.63;;;27.50;66.80;;;;;;5067405;28;20020;-78
2022/08/27 13:12:18;;;;;;;7.28;1.95;;;27.30;66.40;;;;;;5062149;28;20029;-80
2022/08/27 13:14:43;;;;;;;3.97;1.77;;;27.40;67.10;;;;;;5073732;28;20032;-79
2022/08/27 13:17:22;;;;;;;3.83;1.90;;;27.40;65.80;;;;;;5073823;28;20038;-82